createdAt,value
2018-05-13T00:00:48.219Z,91.40
2018-05-13T00:03:16.428Z,91.60
2018-05-13T00:05:43.850Z,91.60
2018-05-13T00:08:11.610Z,91.60
2018-05-13T00:10:39.792Z,91.80
2018-05-13T00:13:07.243Z,91.80
2018-05-13T00:15:34.684Z,91.90
2018-05-13T00:18:02.106Z,92.10
2018-05-13T00:20:29.571Z,92.30
2018-05-13T00:22:57.000Z,92.40
2018-05-13T00:25:25.199Z,92.60
2018-05-13T00:27:52.915Z,92.60
2018-05-13T00:30:20.348Z,92.50
2018-05-13T00:32:47.771Z,92.60
2018-05-13T00:35:15.208Z,92.80
2018-05-13T00:37:42.635Z,93.00
2018-05-13T00:40:10.095Z,93.00
2018-05-13T00:42:37.555Z,92.90
2018-05-13T00:45:04.991Z,93.00
2018-05-13T00:47:32.487Z,93.10
2018-05-13T00:49:59.860Z,93.30
2018-05-13T00:52:27.302Z,93.40
2018-05-13T00:54:55.535Z,93.60
2018-05-13T00:57:22.960Z,93.90
2018-05-13T00:59:50.512Z,93.90
2018-05-13T01:02:17.938Z,94.50
2018-05-13T01:04:45.385Z,94.50
2018-05-13T01:07:12.809Z,94.10
2018-05-13T01:09:40.569Z,93.80
2018-05-13T01:12:08.023Z,93.60
2018-05-13T01:14:35.466Z,93.70
2018-05-13T01:17:02.899Z,93.60
2018-05-13T01:19:30.321Z,93.30
2018-05-13T01:21:57.762Z,93.40
2018-05-13T01:24:25.208Z,93.40
2018-05-13T01:26:52.635Z,93.30
2018-05-13T01:29:20.073Z,93.30
2018-05-13T01:31:47.539Z,93.60
2018-05-13T01:34:15.443Z,93.70
2018-05-13T01:36:42.877Z,93.90
2018-05-13T01:39:10.302Z,94.20
2018-05-13T01:41:38.071Z,93.90
2018-05-13T01:44:05.524Z,94.00
2018-05-13T01:46:32.954Z,94.00
2018-05-13T01:49:00.403Z,94.00
2018-05-13T01:51:27.843Z,93.90
2018-05-13T01:53:55.296Z,93.80
2018-05-13T01:56:22.725Z,93.60
2018-05-13T01:58:50.158Z,93.60
2018-05-13T02:01:18.357Z,93.70
2018-05-13T02:03:45.787Z,93.70
2018-05-13T02:06:13.241Z,93.80
2018-05-13T02:08:40.747Z,94.00
2018-05-13T02:11:08.125Z,94.30
2018-05-13T02:13:35.598Z,94.30
2018-05-13T02:16:03.050Z,94.20
2018-05-13T02:18:31.248Z,94.00
2018-05-13T02:20:58.703Z,94.00
2018-05-13T02:23:26.653Z,94.00
2018-05-13T02:25:54.839Z,94.50
2018-05-13T02:28:22.271Z,94.50
2018-05-13T02:30:50.766Z,94.50
2018-05-13T02:33:18.198Z,94.50
2018-05-13T02:35:45.619Z,94.40
2018-05-13T02:38:13.065Z,94.50
2018-05-13T02:40:40.494Z,94.60
2018-05-13T02:43:07.951Z,94.70
2018-05-13T02:45:35.360Z,94.70
2018-05-13T02:48:02.801Z,94.90
2018-05-13T02:50:30.243Z,95.00
2018-05-13T02:52:57.672Z,95.20
2018-05-13T02:55:25.124Z,95.30
2018-05-13T02:57:52.561Z,95.40
2018-05-13T03:00:19.994Z,95.60
2018-05-13T03:02:47.444Z,95.70
2018-05-13T03:05:14.863Z,95.80
2018-05-13T03:07:42.301Z,95.90
2018-05-13T03:10:09.743Z,96.10
2018-05-13T03:12:37.354Z,96.10
2018-05-13T03:15:04.776Z,96.20
2018-05-13T03:17:32.207Z,96.30
2018-05-13T03:19:59.661Z,96.40
2018-05-13T03:22:27.087Z,96.40
2018-05-13T03:24:54.515Z,96.40
2018-05-13T03:27:21.964Z,96.40
2018-05-13T03:29:49.395Z,96.30
2018-05-13T03:32:16.832Z,96.30
2018-05-13T03:34:44.289Z,96.30
2018-05-13T03:37:11.754Z,96.30
2018-05-13T03:39:39.198Z,96.20
2018-05-13T03:42:06.643Z,96.10
2018-05-13T03:44:34.859Z,96.00
2018-05-13T03:47:02.550Z,96.00
2018-05-13T03:49:29.996Z,96.00
2018-05-13T03:51:57.426Z,95.90
2018-05-13T03:54:24.886Z,95.80
2018-05-13T03:56:52.311Z,95.70
2018-05-13T03:59:19.752Z,95.60
2018-05-13T04:01:47.186Z,95.60
2018-05-13T04:04:15.385Z,95.50
2018-05-13T04:06:42.826Z,95.50
2018-05-13T04:09:21.924Z,95.50
2018-05-13T04:12:01.140Z,95.40
2018-05-13T04:14:41.314Z,95.30
2018-05-13T04:17:08.850Z,95.20
2018-05-13T04:19:36.223Z,95.10
2018-05-13T04:22:03.674Z,94.90
2018-05-13T04:24:31.118Z,94.70
2018-05-13T04:26:58.619Z,94.60
2018-05-13T04:29:26.103Z,94.40
2018-05-13T04:31:54.291Z,94.10
2018-05-13T04:34:21.755Z,94.10
2018-05-13T04:36:49.964Z,94.00
2018-05-13T04:39:17.391Z,93.90
2018-05-13T04:41:44.850Z,93.90
2018-05-13T04:44:12.281Z,93.90
2018-05-13T04:46:40.026Z,93.90
2018-05-13T04:49:07.515Z,93.90
2018-05-13T04:51:35.714Z,93.40
2018-05-13T04:54:03.926Z,93.20
2018-05-13T04:56:32.132Z,93.10
2018-05-13T04:58:59.618Z,93.00
2018-05-13T05:01:27.055Z,92.70
2018-05-13T05:03:54.766Z,92.60
2018-05-13T05:06:22.231Z,92.20
2018-05-13T05:08:49.665Z,92.00
2018-05-13T05:11:17.100Z,91.70
2018-05-13T05:13:44.523Z,91.30
2018-05-13T05:16:11.966Z,90.70
2018-05-13T05:18:39.529Z,90.30
2018-05-13T05:21:07.743Z,88.60
2018-05-13T05:23:35.175Z,88.50
2018-05-13T05:26:02.894Z,87.80
2018-05-13T05:28:30.318Z,87.50
2018-05-13T05:30:57.807Z,87.30
2018-05-13T05:33:25.313Z,86.60
2018-05-13T05:35:52.853Z,85.20
2018-05-13T05:38:20.523Z,84.30
2018-05-13T05:40:47.930Z,83.50
2018-05-13T05:43:15.389Z,83.20
2018-05-13T05:45:42.825Z,83.00
2018-05-13T05:48:10.408Z,82.60
2018-05-13T05:50:37.836Z,82.40
2018-05-13T05:53:05.264Z,82.30
2018-05-13T05:55:32.698Z,82.60
2018-05-13T05:58:00.202Z,82.50
2018-05-13T06:00:27.654Z,82.40
2018-05-13T06:02:55.087Z,82.50
2018-05-13T06:05:23.300Z,82.70
2018-05-13T06:07:50.742Z,82.70
2018-05-13T06:10:18.186Z,82.90
2018-05-13T06:12:45.919Z,83.00
2018-05-13T06:15:13.376Z,83.20
2018-05-13T06:17:40.814Z,82.70
2018-05-13T06:20:08.261Z,81.70
2018-05-13T06:22:35.695Z,82.40
2018-05-13T06:25:03.148Z,82.30
2018-05-13T06:27:30.571Z,82.20
2018-05-13T06:29:58.010Z,82.00
2018-05-13T06:32:25.467Z,81.40
2018-05-13T06:34:52.893Z,81.20
2018-05-13T06:37:20.599Z,80.80
2018-05-13T06:39:48.025Z,80.50
2018-05-13T06:42:15.458Z,80.40
2018-05-13T06:44:42.910Z,80.00
2018-05-13T06:47:10.339Z,78.60
2018-05-13T06:49:37.780Z,78.70
2018-05-13T06:52:05.227Z,78.40
2018-05-13T06:54:32.672Z,77.90
2018-05-13T06:57:00.098Z,77.70
2018-05-13T06:59:27.583Z,77.30
2018-05-13T07:01:55.424Z,77.30
2018-05-13T07:04:23.106Z,76.70
2018-05-13T07:06:50.534Z,76.80
2018-05-13T07:09:17.991Z,76.80
2018-05-13T07:11:45.495Z,76.40
2018-05-13T07:14:12.991Z,76.40
2018-05-13T07:16:40.456Z,76.30
2018-05-13T07:19:07.950Z,76.40
2018-05-13T07:21:35.690Z,76.20
2018-05-13T07:24:03.170Z,77.10
2018-05-13T07:26:30.598Z,76.60
2018-05-13T07:28:58.061Z,76.20
2018-05-13T07:31:25.495Z,75.20
2018-05-13T07:33:52.949Z,74.80
2018-05-13T07:36:21.160Z,71.70
2018-05-13T07:38:49.515Z,71.70
2018-05-13T07:41:16.959Z,70.70
2018-05-13T07:43:44.732Z,70.40
2018-05-13T07:46:12.179Z,68.90
2018-05-13T07:48:39.606Z,70.60
2018-05-13T07:51:07.049Z,68.80
2018-05-13T07:53:34.477Z,68.10
2018-05-13T07:56:02.259Z,66.30
2018-05-13T07:58:29.687Z,66.80
2018-05-13T08:00:57.125Z,66.40
2018-05-13T08:03:24.578Z,65.50
2018-05-13T08:05:52.007Z,64.90
2018-05-13T08:08:19.711Z,66.20
2018-05-13T08:10:47.162Z,64.80
2018-05-13T08:13:14.591Z,66.30
2018-05-13T08:15:42.138Z,65.00
2018-05-13T08:18:09.604Z,64.20
2018-05-13T08:20:37.048Z,64.40
2018-05-13T08:23:04.568Z,64.30
2018-05-13T08:25:32.184Z,62.80
2018-05-13T08:27:59.610Z,60.70
2018-05-13T08:30:27.088Z,59.40
2018-05-13T08:32:54.543Z,57.10
2018-05-13T08:35:22.097Z,55.40
2018-05-13T08:37:49.888Z,55.10
2018-05-13T08:40:17.303Z,54.30
2018-05-13T08:42:44.761Z,55.80
2018-05-13T08:45:12.211Z,55.20
2018-05-13T08:47:39.647Z,56.00
2018-05-13T08:50:07.148Z,56.50
2018-05-13T08:52:34.610Z,57.50
2018-05-13T08:55:02.055Z,57.40
2018-05-13T08:57:30.407Z,57.30
2018-05-13T08:59:57.957Z,57.90
2018-05-13T09:02:25.425Z,58.30
2018-05-13T09:04:52.935Z,59.30
2018-05-13T09:07:20.380Z,60.40
2018-05-13T09:09:48.620Z,59.80
2018-05-13T09:12:16.116Z,59.90
2018-05-13T09:14:43.644Z,59.70
2018-05-13T09:17:11.067Z,59.50
2018-05-13T09:19:38.518Z,59.90
2018-05-13T09:22:05.951Z,59.30
2018-05-13T09:24:33.413Z,59.00
2018-05-13T09:27:00.838Z,58.20
2018-05-13T09:29:28.322Z,59.30
2018-05-13T09:31:55.776Z,57.70
2018-05-13T09:34:23.319Z,58.00
2018-05-13T09:36:50.784Z,58.10
2018-05-13T09:39:18.274Z,56.10
2018-05-13T09:41:45.682Z,57.40
2018-05-13T09:44:13.152Z,56.30
2018-05-13T09:46:40.657Z,57.00
2018-05-13T09:49:08.085Z,57.70
2018-05-13T09:51:35.530Z,58.30
2018-05-13T09:54:03.019Z,58.80
2018-05-13T09:56:30.474Z,59.70
2018-05-13T09:58:57.983Z,60.50
2018-05-13T10:01:25.452Z,60.70
2018-05-13T10:03:52.890Z,59.70
2018-05-13T10:06:20.347Z,60.40
2018-05-13T10:08:48.548Z,61.60
2018-05-13T10:11:15.990Z,61.70
2018-05-13T10:13:43.450Z,62.20
2018-05-13T10:16:10.954Z,63.30
2018-05-13T10:18:38.391Z,64.10
2018-05-13T10:21:05.926Z,65.10
2018-05-13T10:23:34.347Z,66.70
2018-05-13T10:26:01.811Z,66.80
2018-05-13T10:28:29.317Z,67.60
2018-05-13T10:30:56.903Z,69.00
2018-05-13T10:33:24.359Z,67.90
2018-05-13T10:35:51.824Z,68.30
2018-05-13T10:38:19.255Z,67.80
2018-05-13T10:40:46.678Z,68.00
2018-05-13T10:43:14.126Z,68.20
2018-05-13T10:45:42.334Z,67.50
2018-05-13T10:48:09.793Z,67.40
2018-05-13T10:50:37.238Z,66.80
2018-05-13T10:53:04.676Z,66.90
2018-05-13T10:55:32.126Z,65.40
2018-05-13T10:58:00.337Z,64.70
2018-05-13T11:00:28.527Z,64.70
2018-05-13T11:02:55.992Z,63.30
2018-05-13T11:05:23.419Z,63.40
2018-05-13T11:07:50.862Z,64.50
2018-05-13T11:10:18.317Z,64.50
2018-05-13T11:12:45.770Z,63.70
2018-05-13T11:15:13.255Z,64.30
2018-05-13T11:17:41.706Z,65.40
2018-05-13T11:20:09.200Z,65.40
2018-05-13T11:22:36.677Z,66.90
2018-05-13T11:25:04.111Z,66.00
2018-05-13T11:27:31.587Z,67.10
2018-05-13T11:29:59.095Z,67.40
2018-05-13T11:32:26.539Z,67.20
2018-05-13T11:34:53.973Z,67.50
2018-05-13T11:37:21.427Z,67.90
2018-05-13T11:39:48.934Z,68.20
2018-05-13T11:42:16.339Z,68.50
2018-05-13T11:44:43.771Z,69.10
2018-05-13T11:47:11.227Z,68.90
2018-05-13T11:49:38.656Z,69.90
2018-05-13T11:52:06.094Z,70.70
2018-05-13T11:54:33.524Z,71.60
2018-05-13T11:57:00.987Z,71.10
2018-05-13T11:59:28.470Z,71.20
2018-05-13T12:01:55.865Z,71.70
2018-05-13T12:04:23.325Z,71.50
2018-05-13T12:06:50.754Z,71.20
2018-05-13T12:09:18.201Z,70.80
2018-05-13T12:11:45.630Z,71.10
2018-05-13T12:14:13.069Z,71.20
2018-05-13T12:16:40.515Z,70.50
2018-05-13T12:19:07.944Z,70.60
2018-05-13T12:21:35.388Z,70.50
2018-05-13T12:24:04.122Z,69.90
2018-05-13T12:26:31.571Z,69.20
2018-05-13T12:28:59.050Z,67.20
2018-05-13T12:31:26.471Z,66.30
2018-05-13T12:33:53.942Z,65.20
2018-05-13T12:36:21.396Z,65.10
2018-05-13T12:38:48.834Z,64.00
2018-05-13T12:41:16.311Z,63.10
2018-05-13T12:43:43.763Z,63.50
2018-05-13T12:46:11.214Z,62.60
2018-05-13T12:48:38.674Z,62.50
2018-05-13T12:51:06.140Z,61.30
2018-05-13T12:53:33.839Z,60.80
2018-05-13T12:56:01.279Z,60.80
2018-05-13T12:58:29.600Z,58.90
2018-05-13T13:00:57.178Z,58.90
2018-05-13T13:03:24.618Z,58.20
2018-05-13T13:05:52.066Z,57.70
2018-05-13T13:08:19.495Z,57.00
2018-05-13T13:10:46.949Z,55.90
2018-05-13T13:13:14.394Z,55.90
2018-05-13T13:15:41.851Z,54.80
2018-05-13T13:18:09.307Z,55.10
2018-05-13T13:20:36.769Z,54.40
2018-05-13T13:23:04.208Z,54.90
2018-05-13T13:25:31.654Z,55.50
2018-05-13T13:27:59.896Z,54.70
2018-05-13T13:30:28.206Z,54.00
2018-05-13T13:32:55.562Z,54.00
2018-05-13T13:35:23.054Z,53.50
2018-05-13T13:37:50.483Z,53.70
2018-05-13T13:40:17.945Z,53.70
2018-05-13T13:42:45.377Z,52.90
2018-05-13T13:45:12.825Z,52.90
2018-05-13T13:47:40.274Z,53.60
2018-05-13T13:50:07.741Z,53.40
2018-05-13T13:52:35.243Z,54.50
2018-05-13T13:55:02.701Z,54.70
2018-05-13T13:57:30.130Z,54.70
2018-05-13T13:59:57.599Z,53.90
2018-05-13T14:02:25.058Z,52.10
2018-05-13T14:04:52.511Z,48.40
2018-05-13T14:07:19.989Z,46.30
2018-05-13T14:09:48.183Z,45.60
2018-05-13T14:12:16.460Z,45.50
2018-05-13T14:14:43.922Z,45.40
2018-05-13T14:17:11.384Z,46.40
2018-05-13T14:19:38.854Z,47.80
2018-05-13T14:22:06.355Z,47.40
2018-05-13T14:24:33.808Z,45.30
2018-05-13T14:27:01.311Z,44.70
2018-05-13T14:29:28.703Z,44.30
2018-05-13T14:31:56.190Z,45.10
2018-05-13T14:34:23.629Z,45.70
2018-05-13T14:36:51.074Z,46.90
2018-05-13T14:39:18.554Z,47.70
2018-05-13T14:41:45.997Z,48.10
2018-05-13T14:44:14.223Z,49.30
2018-05-13T14:46:41.678Z,49.30
2018-05-13T14:49:09.146Z,50.30
2018-05-13T14:51:36.578Z,51.70
2018-05-13T14:54:04.039Z,52.30
2018-05-13T14:56:31.488Z,52.60
2018-05-13T14:58:58.987Z,53.00
2018-05-13T15:01:26.407Z,52.90
2018-05-13T15:03:54.919Z,54.20
2018-05-13T15:06:22.416Z,54.20
2018-05-13T15:08:49.831Z,54.00
2018-05-13T15:11:17.299Z,54.90
2018-05-13T15:13:44.739Z,55.10
2018-05-13T15:16:12.235Z,56.60
2018-05-13T15:18:39.973Z,57.90
2018-05-13T15:21:07.407Z,60.00
2018-05-13T15:23:34.863Z,60.40
2018-05-13T15:26:02.477Z,62.00
2018-05-13T15:28:29.938Z,63.50
2018-05-13T15:30:57.391Z,64.60
2018-05-13T15:33:24.901Z,65.80
2018-05-13T15:35:52.752Z,66.60
2018-05-13T15:38:20.177Z,66.60
2018-05-13T15:40:47.626Z,67.20
2018-05-13T15:43:15.268Z,67.30
2018-05-13T15:45:42.624Z,67.70
2018-05-13T15:48:10.515Z,67.70
2018-05-13T15:50:37.901Z,68.20
2018-05-13T15:53:05.397Z,68.90
2018-05-13T15:55:33.006Z,68.40
2018-05-13T15:58:00.795Z,69.00
2018-05-13T16:00:28.295Z,69.20
2018-05-13T16:02:55.758Z,70.00
2018-05-13T16:05:23.201Z,69.70
2018-05-13T16:07:50.919Z,69.70
2018-05-13T16:10:19.125Z,69.90
2018-05-13T16:12:46.604Z,69.90
2018-05-13T16:15:14.043Z,69.40
2018-05-13T16:17:41.520Z,69.80
2018-05-13T16:20:09.019Z,69.00
2018-05-13T16:22:36.496Z,69.40
2018-05-13T16:25:03.971Z,69.50
2018-05-13T16:27:31.454Z,68.70
2018-05-13T16:29:58.918Z,69.20
2018-05-13T16:32:26.352Z,68.80
2018-05-13T16:34:53.919Z,69.20
2018-05-13T16:37:21.408Z,67.80
2018-05-13T16:39:48.860Z,67.00
2018-05-13T16:42:16.653Z,66.80
2018-05-13T16:44:44.095Z,67.20
2018-05-13T16:47:11.552Z,66.80
2018-05-13T16:49:38.984Z,66.50
2018-05-13T16:52:07.189Z,68.10
2018-05-13T16:54:34.714Z,68.00
2018-05-13T16:57:02.146Z,68.30
2018-05-13T16:59:29.678Z,68.50
2018-05-13T17:01:57.032Z,68.40
2018-05-13T17:04:25.248Z,68.60
2018-05-13T17:06:52.700Z,69.20
2018-05-13T17:09:20.215Z,68.20
2018-05-13T17:11:47.618Z,69.40
2018-05-13T17:14:15.062Z,69.50
2018-05-13T17:16:42.516Z,69.90
2018-05-13T17:19:10.711Z,71.30
2018-05-13T17:21:38.295Z,71.30
2018-05-13T17:24:05.748Z,71.70
2018-05-13T17:26:33.180Z,71.80
2018-05-13T17:29:00.771Z,73.10
2018-05-13T17:31:28.200Z,73.40
2018-05-13T17:33:55.645Z,75.00
2018-05-13T17:36:23.108Z,75.20
2018-05-13T17:38:50.566Z,76.00
2018-05-13T17:41:18.029Z,76.30
2018-05-13T17:43:45.474Z,76.90
2018-05-13T17:46:12.943Z,77.20
2018-05-13T17:48:40.390Z,77.90
2018-05-13T17:51:07.828Z,78.40
2018-05-13T17:53:35.332Z,78.40
2018-05-13T17:56:02.778Z,78.70
2018-05-13T17:58:30.207Z,78.80
2018-05-13T18:00:57.768Z,79.30
2018-05-13T18:03:25.188Z,79.50
2018-05-13T18:05:52.559Z,79.80
2018-05-13T18:08:20.087Z,80.70
2018-05-13T18:10:47.542Z,81.20
2018-05-13T18:13:15.083Z,81.70
2018-05-13T18:15:42.530Z,82.00
2018-05-13T18:18:10.302Z,82.90
2018-05-13T18:20:37.755Z,82.60
2018-05-13T18:23:05.962Z,82.80
2018-05-13T18:25:33.419Z,82.80
2018-05-13T18:28:00.878Z,83.00
2018-05-13T18:30:28.320Z,83.80
2018-05-13T18:32:55.764Z,84.10
2018-05-13T18:35:23.225Z,84.20
2018-05-13T18:37:51.432Z,84.40
2018-05-13T18:40:18.871Z,84.40
2018-05-13T18:42:47.251Z,84.90
2018-05-13T18:45:15.472Z,85.90
2018-05-13T18:47:42.903Z,85.90
2018-05-13T18:50:10.392Z,87.10
2018-05-13T18:52:37.780Z,88.90
2018-05-13T18:55:05.236Z,89.20
2018-05-13T18:57:32.816Z,90.20
2018-05-13T19:00:00.251Z,90.80
2018-05-13T19:02:27.712Z,91.80
2018-05-13T19:04:55.163Z,92.30
2018-05-13T19:07:22.611Z,92.60
2018-05-13T19:09:50.104Z,92.70
2018-05-13T19:12:17.585Z,92.90
2018-05-13T19:14:45.020Z,93.40
2018-05-13T19:17:12.468Z,94.20
2018-05-13T19:19:39.912Z,94.30
2018-05-13T19:22:07.338Z,94.50
2018-05-13T19:24:35.547Z,95.00
2018-05-13T19:27:02.979Z,95.00
2018-05-13T19:29:30.434Z,95.20
2018-05-13T19:31:57.868Z,95.50
2018-05-13T19:34:25.338Z,95.70
2018-05-13T19:36:52.846Z,95.90
2018-05-13T19:39:20.219Z,96.10
2018-05-13T19:41:47.801Z,96.00
2018-05-13T19:44:15.254Z,96.00
2018-05-13T19:46:42.735Z,96.00
2018-05-13T19:49:10.210Z,96.10
2018-05-13T19:51:37.658Z,96.20
2018-05-13T19:54:05.202Z,96.20
2018-05-13T19:56:32.575Z,96.30
2018-05-13T19:59:00.015Z,96.70
2018-05-13T20:01:27.607Z,96.40
2018-05-13T20:03:55.042Z,96.40
2018-05-13T20:06:22.548Z,96.40
2018-05-13T20:08:50.034Z,96.60
2018-05-13T20:11:17.620Z,96.70
2018-05-13T20:13:45.099Z,96.60
2018-05-13T20:16:12.543Z,96.60
2018-05-13T20:18:39.995Z,96.60
2018-05-13T20:21:07.434Z,96.80
2018-05-13T20:23:34.925Z,96.70
2018-05-13T20:26:02.351Z,96.70
2018-05-13T20:28:29.802Z,96.80
2018-05-13T20:30:57.530Z,96.70
2018-05-13T20:33:24.969Z,96.60
2018-05-13T20:35:52.460Z,96.70
2018-05-13T20:38:19.859Z,96.80
2018-05-13T20:40:47.348Z,96.90
2018-05-13T20:43:14.882Z,97.20
2018-05-13T20:45:42.319Z,97.30
2018-05-13T20:48:09.766Z,97.30
2018-05-13T20:50:37.207Z,97.40
2018-05-13T20:53:04.667Z,97.40
2018-05-13T20:55:32.131Z,97.50
2018-05-13T20:57:59.576Z,97.40
2018-05-13T21:00:27.041Z,97.50
2018-05-13T21:02:54.507Z,97.40
2018-05-13T21:05:21.966Z,97.60
2018-05-13T21:07:51.144Z,97.70
2018-05-13T21:10:18.577Z,97.60
2018-05-13T21:12:47.146Z,97.80
2018-05-13T21:15:15.355Z,97.80
2018-05-13T21:17:42.790Z,97.80
2018-05-13T21:20:10.240Z,98.10
2018-05-13T21:22:37.675Z,97.90
2018-05-13T21:25:05.120Z,97.30
2018-05-13T21:27:32.620Z,97.20
2018-05-13T21:30:00.008Z,97.20
2018-05-13T21:32:27.598Z,97.20
2018-05-13T21:34:55.047Z,97.30
2018-05-13T21:37:22.478Z,97.30
2018-05-13T21:39:49.939Z,97.40
2018-05-13T21:42:17.382Z,97.40
2018-05-13T21:44:44.822Z,97.50
2018-05-13T21:47:12.332Z,97.60
2018-05-13T21:49:39.679Z,97.70
2018-05-13T21:52:07.124Z,97.60
2018-05-13T21:54:34.574Z,97.60
2018-05-13T21:57:01.995Z,97.50
2018-05-13T21:59:29.443Z,97.60
2018-05-13T22:01:56.933Z,97.60
2018-05-13T22:04:24.321Z,97.70
2018-05-13T22:06:51.766Z,97.70
2018-05-13T22:09:19.226Z,97.80
2018-05-13T22:11:46.662Z,97.70
2018-05-13T22:14:14.098Z,98.00
2018-05-13T22:16:41.538Z,97.70
2018-05-13T22:19:08.974Z,97.70
2018-05-13T22:21:36.410Z,97.70
2018-05-13T22:24:03.860Z,97.80
2018-05-13T22:26:31.289Z,97.70
2018-05-13T22:28:58.763Z,97.60
2018-05-13T22:31:26.216Z,97.50
2018-05-13T22:33:53.643Z,97.60
2018-05-13T22:36:21.381Z,97.60
2018-05-13T22:38:48.822Z,97.70
2018-05-13T22:41:16.290Z,97.70
2018-05-13T22:43:43.746Z,97.80
2018-05-13T22:46:11.178Z,97.80
2018-05-13T22:48:38.632Z,97.70
2018-05-13T22:51:06.839Z,97.50
2018-05-13T22:53:34.272Z,97.50
2018-05-13T22:56:04.261Z,97.30
2018-05-13T22:58:33.263Z,96.90
2018-05-13T23:01:00.685Z,96.90
2018-05-13T23:03:28.135Z,96.60
2018-05-13T23:05:55.573Z,96.20
2018-05-13T23:08:23.008Z,96.20
2018-05-13T23:10:50.504Z,96.20
2018-05-13T23:13:17.891Z,96.20
2018-05-13T23:15:46.107Z,96.10
2018-05-13T23:18:13.559Z,96.40
2018-05-13T23:20:41.744Z,96.00
2018-05-13T23:23:09.191Z,96.00
2018-05-13T23:25:36.622Z,96.00
2018-05-13T23:28:04.058Z,96.10
2018-05-13T23:30:31.508Z,96.00
2018-05-13T23:32:58.926Z,96.10
2018-05-13T23:35:26.368Z,96.10
2018-05-13T23:37:53.804Z,96.20
2018-05-13T23:40:21.231Z,96.20
2018-05-13T23:42:48.646Z,96.30
2018-05-13T23:45:16.083Z,96.40
2018-05-13T23:47:43.536Z,96.60
2018-05-13T23:50:10.967Z,96.70
2018-05-13T23:52:38.400Z,96.60
2018-05-13T23:55:05.832Z,96.80
2018-05-13T23:57:33.267Z,96.90
